createdAt,value
2022-12-06T00:04:23.480Z,18.88
2022-12-06T00:09:29.641Z,19.17
2022-12-06T00:14:32.372Z,18.27
2022-12-06T00:19:35.137Z,19.23
2022-12-06T00:24:39.515Z,21.15
2022-12-06T00:29:42.236Z,17.33
2022-12-06T00:34:45.041Z,14.98
2022-12-06T00:39:49.121Z,17.23
2022-12-06T00:44:51.824Z,14.43
2022-12-06T00:49:54.704Z,17.45
2022-12-06T00:54:58.844Z,16.45
2022-12-06T01:00:01.942Z,17.58
2022-12-06T01:05:05.546Z,20.98
2022-12-06T01:10:10.210Z,16.88
2022-12-06T01:15:13.178Z,15.05
2022-12-06T01:20:15.905Z,15.68
2022-12-06T01:25:20.075Z,13.77
2022-12-06T01:30:22.910Z,15.05
2022-12-06T01:35:25.784Z,17.33
2022-12-06T01:40:30.157Z,12.35
2022-12-06T01:45:33.225Z,16.85
2022-12-06T01:50:39.471Z,10.77
2022-12-06T01:55:43.748Z,14.30
2022-12-06T02:00:46.622Z,19.10
2022-12-06T02:05:49.686Z,13.05
2022-12-06T02:10:53.975Z,14.35
2022-12-06T02:16:04.967Z,24.48
2022-12-06T02:21:17.124Z,13.40
2022-12-06T02:26:29.901Z,19.80
2022-12-06T02:31:41.122Z,17.13
2022-12-06T02:36:50.062Z,17.27
2022-12-06T02:42:00.058Z,19.27
2022-12-06T02:47:08.570Z,15.65
2022-12-06T02:52:12.082Z,20.33
2022-12-06T02:57:14.978Z,15.43
2022-12-06T03:02:19.577Z,15.27
2022-12-06T03:07:43.244Z,14.68
2022-12-06T03:12:56.398Z,13.75
2022-12-06T03:18:07.389Z,15.90
2022-12-06T03:23:14.598Z,16.73
2022-12-06T03:28:20.020Z,17.75
2022-12-06T03:33:27.577Z,20.30
2022-12-06T03:38:36.420Z,15.50
2022-12-06T03:43:39.263Z,15.45
2022-12-06T03:48:47.515Z,15.77
2022-12-06T03:53:53.671Z,13.52
2022-12-06T03:58:56.469Z,14.83
2022-12-06T04:04:01.196Z,13.63
2022-12-06T04:09:17.928Z,16.63
2022-12-06T04:14:20.737Z,15.75
2022-12-06T04:19:24.892Z,18.90
2022-12-06T04:24:27.641Z,14.20
2022-12-06T04:29:48.335Z,17.38
2022-12-06T04:35:09.868Z,15.13
2022-12-06T04:40:12.768Z,15.05
2022-12-06T04:45:15.595Z,15.43
2022-12-06T04:50:19.817Z,13.50
2022-12-06T04:55:22.663Z,13.38
2022-12-06T05:00:25.572Z,10.57
2022-12-06T05:05:30.403Z,11.43
2022-12-06T05:10:33.629Z,11.23
2022-12-06T05:15:36.400Z,11.43
2022-12-06T05:20:40.620Z,14.30
2022-12-06T05:25:43.761Z,16.85
2022-12-06T05:30:46.609Z,12.90
2022-12-06T05:35:50.964Z,12.55
2022-12-06T05:40:53.723Z,15.27
2022-12-06T05:45:56.870Z,15.18
2022-12-06T05:51:01.044Z,17.98
2022-12-06T05:56:08.620Z,18.52
2022-12-06T06:01:11.455Z,28.15
2022-12-06T06:06:15.788Z,22.88
2022-12-06T06:11:18.638Z,31.55
2022-12-06T06:16:21.891Z,24.42
2022-12-06T06:21:26.400Z,30.85
2022-12-06T06:26:29.769Z,33.22
2022-12-06T06:31:32.697Z,25.88
2022-12-06T06:36:41.069Z,18.40
2022-12-06T06:41:46.910Z,23.52
2022-12-06T06:46:49.905Z,36.58
2022-12-06T06:51:54.225Z,29.50
2022-12-06T06:56:57.921Z,33.22
2022-12-06T07:02:01.443Z,30.13
2022-12-06T07:07:06.421Z,25.50
2022-12-06T07:12:09.953Z,29.25
2022-12-06T07:17:12.843Z,30.05
2022-12-06T07:22:17.099Z,35.60
2022-12-06T07:27:20.095Z,31.48
2022-12-06T07:32:23.380Z,34.92
2022-12-06T07:37:27.489Z,31.55
2022-12-06T07:42:48.780Z,39.33
2022-12-06T07:47:51.740Z,27.92
2022-12-06T07:53:00.025Z,28.10
2022-12-06T07:58:02.887Z,32.67
2022-12-06T08:03:06.543Z,23.95
2022-12-06T08:08:11.441Z,27.65
2022-12-06T08:13:14.407Z,30.20
2022-12-06T08:18:17.265Z,40.35
2022-12-06T08:23:21.472Z,27.83
2022-12-06T08:28:29.003Z,27.85
2022-12-06T08:33:33.809Z,22.45
2022-12-06T08:38:39.109Z,34.97
2022-12-06T08:43:42.498Z,30.65
2022-12-06T08:48:46.241Z,31.55
2022-12-06T08:53:50.595Z,34.03
2022-12-06T08:58:55.471Z,32.28
2022-12-06T09:03:59.894Z,32.20
2022-12-06T09:09:04.740Z,31.77
2022-12-06T09:14:09.165Z,37.40
2022-12-06T09:19:12.535Z,35.45
2022-12-06T09:24:18.768Z,30.17
2022-12-06T09:29:23.521Z,30.00
2022-12-06T09:34:27.085Z,27.10
2022-12-06T09:39:35.696Z,46.80
2022-12-06T09:45:15.381Z,32.40
2022-12-06T09:50:29.454Z,29.67
2022-12-06T09:55:49.230Z,35.50
2022-12-06T10:01:05.720Z,45.42
2022-12-06T10:06:14.429Z,47.15
2022-12-06T10:11:33.551Z,32.92
2022-12-06T10:16:51.125Z,35.53
2022-12-06T10:22:07.182Z,40.33
2022-12-06T10:27:12.921Z,38.73
2022-12-06T10:32:19.204Z,46.28
2022-12-06T10:37:36.302Z,45.83
2022-12-06T10:42:46.103Z,48.28
2022-12-06T10:47:48.921Z,56.03
2022-12-06T10:53:01.643Z,34.15
2022-12-06T10:58:15.534Z,45.95
2022-12-06T11:03:22.328Z,35.55
2022-12-06T11:08:31.140Z,39.55
2022-12-06T11:13:41.238Z,42.15
2022-12-06T11:18:45.744Z,32.80
2022-12-06T11:23:54.620Z,32.60
2022-12-06T11:29:06.243Z,31.42
2022-12-06T11:34:15.786Z,33.45
2022-12-06T11:39:19.306Z,33.92
2022-12-06T11:44:27.556Z,36.33
2022-12-06T11:49:35.437Z,38.08
2022-12-06T11:54:44.642Z,38.83
2022-12-06T12:00:12.350Z,22.35
2022-12-06T12:05:20.919Z,29.85
2022-12-06T12:10:32.656Z,26.92
2022-12-06T12:15:37.622Z,23.00
2022-12-06T12:20:47.356Z,22.23
2022-12-06T12:26:01.764Z,19.40
2022-12-06T12:31:17.572Z,11.77
2022-12-06T12:36:26.722Z,20.17
2022-12-06T12:41:33.964Z,13.32
2022-12-06T12:46:39.195Z,16.25
2022-12-06T12:51:48.074Z,12.98
2022-12-06T12:56:52.988Z,15.35
2022-12-06T13:02:03.057Z,19.08
2022-12-06T13:07:08.976Z,17.10
2022-12-06T13:12:16.196Z,17.10
2022-12-06T13:17:24.609Z,20.67
2022-12-06T13:22:30.662Z,29.48
2022-12-06T13:27:37.949Z,24.10
2022-12-06T13:32:46.534Z,20.02
2022-12-06T13:37:54.928Z,25.65
2022-12-06T13:42:59.317Z,25.95
2022-12-06T13:48:03.473Z,23.92
2022-12-06T13:53:06.302Z,28.00
2022-12-06T13:59:00.953Z,31.98
2022-12-06T14:09:42.957Z,27.92
2022-12-06T14:14:56.341Z,19.05
2022-12-06T14:20:01.624Z,14.32
2022-12-06T14:25:08.618Z,14.40
2022-12-06T14:30:25.449Z,17.98
2022-12-06T14:35:35.638Z,14.25
2022-12-06T14:40:55.771Z,22.38
2022-12-06T14:46:01.338Z,14.38
2022-12-06T14:51:06.266Z,15.90
2022-12-06T14:56:23.313Z,15.80
2022-12-06T15:01:28.977Z,24.45
2022-12-06T15:06:36.541Z,15.55
2022-12-06T15:11:58.584Z,12.95
2022-12-06T15:17:04.293Z,13.20
2022-12-06T15:22:22.939Z,12.15
2022-12-06T15:27:28.589Z,11.15
2022-12-06T15:32:34.212Z,13.25
2022-12-06T15:37:39.927Z,19.75
2022-12-06T15:42:44.092Z,25.83
2022-12-06T15:47:48.118Z,28.17
2022-12-06T15:52:52.184Z,37.38
2022-12-06T15:57:55.163Z,24.73
2022-12-06T16:02:58.012Z,36.30
2022-12-06T16:08:02.239Z,62.83
2022-12-06T16:13:23.711Z,89.10
2022-12-06T16:18:26.661Z,49.10
2022-12-06T16:24:12.425Z,58.75
2022-12-06T16:29:14.266Z,34.10
2022-12-06T16:34:17.386Z,36.22
2022-12-06T16:39:21.524Z,52.95
2022-12-06T16:44:24.604Z,45.78
2022-12-06T16:49:46.925Z,61.75
2022-12-06T16:54:51.859Z,84.30
2022-12-06T16:59:54.635Z,73.50
2022-12-06T17:04:58.900Z,57.75
2022-12-06T17:10:03.700Z,61.25
2022-12-06T17:15:08.757Z,56.22
2022-12-06T17:20:14.249Z,39.47
2022-12-06T17:25:18.472Z,41.45
2022-12-06T17:30:23.262Z,36.65
2022-12-06T17:35:26.022Z,41.38
2022-12-06T17:40:30.241Z,33.50
2022-12-06T17:45:33.095Z,40.63
2022-12-06T17:50:38.060Z,31.15
2022-12-06T17:55:42.130Z,34.55
2022-12-06T18:00:45.064Z,33.67
2022-12-06T18:05:48.566Z,37.45
2022-12-06T18:10:59.135Z,36.42
2022-12-06T18:16:02.116Z,30.42
2022-12-06T18:21:06.225Z,29.77
2022-12-06T18:26:13.299Z,24.13
2022-12-06T18:31:16.281Z,38.63
2022-12-06T18:36:20.523Z,34.58
2022-12-06T18:41:25.532Z,35.15
2022-12-06T18:46:28.488Z,37.42
2022-12-06T18:51:35.106Z,41.40
2022-12-06T18:56:39.877Z,67.25
2022-12-06T19:01:43.196Z,46.83
2022-12-06T19:06:46.086Z,50.67
2022-12-06T19:11:50.318Z,42.22
2022-12-06T19:16:53.639Z,48.03
2022-12-06T19:21:56.985Z,52.88
2022-12-06T19:27:01.816Z,59.92
2022-12-06T19:32:04.708Z,46.33
2022-12-06T19:37:07.571Z,37.30
2022-12-06T19:42:29.346Z,45.38
2022-12-06T19:47:32.191Z,64.53
2022-12-06T19:52:35.025Z,45.25
2022-12-06T19:57:39.937Z,54.67
2022-12-06T20:02:42.754Z,47.05
2022-12-06T20:07:45.529Z,52.70
2022-12-06T20:12:49.782Z,68.20
2022-12-06T20:17:52.576Z,60.35
2022-12-06T20:22:55.400Z,65.45
2022-12-06T20:28:02.407Z,49.30
2022-12-06T20:38:07.753Z,57.65
2022-12-06T20:43:11.966Z,55.95
2022-12-06T20:48:15.116Z,59.80
2022-12-06T20:53:17.958Z,51.45
2022-12-06T20:58:22.194Z,56.67
2022-12-06T21:03:25.261Z,56.10
2022-12-06T21:08:28.551Z,55.13
2022-12-06T21:13:33.382Z,62.97
2022-12-06T21:18:36.888Z,57.65
2022-12-06T21:23:40.703Z,47.72
2022-12-06T21:28:44.829Z,53.40
2022-12-06T21:33:47.745Z,53.85
2022-12-06T21:38:50.925Z,53.25
2022-12-06T21:43:55.381Z,56.42
2022-12-06T21:49:00.558Z,56.83
2022-12-06T21:54:03.441Z,53.67
2022-12-06T21:59:07.713Z,58.92
2022-12-06T22:04:10.537Z,63.58
2022-12-06T22:09:13.324Z,57.30
2022-12-06T22:14:17.807Z,60.42
2022-12-06T22:19:20.843Z,54.47
2022-12-06T22:24:24.975Z,55.70
2022-12-06T22:29:29.308Z,53.78
2022-12-06T22:34:32.680Z,53.97
2022-12-06T22:39:35.437Z,51.53
2022-12-06T22:44:39.606Z,50.60
2022-12-06T22:49:42.417Z,51.33
2022-12-06T22:54:45.225Z,47.95
2022-12-06T22:59:49.317Z,65.00
2022-12-06T23:04:52.044Z,47.85
2022-12-06T23:09:54.832Z,46.92
2022-12-06T23:14:59.585Z,45.17
2022-12-06T23:20:02.581Z,55.47
2022-12-06T23:25:06.627Z,43.08
2022-12-06T23:30:11.979Z,31.83
2022-12-06T23:35:14.902Z,40.13
2022-12-06T23:40:17.742Z,33.63
2022-12-06T23:45:21.816Z,35.08
2022-12-06T23:50:24.597Z,28.10
2022-12-06T23:55:27.380Z,32.63
